createdAt,value
2018-10-05T00:00:05.091Z,944.02
2018-10-05T00:01:05.876Z,943.98
2018-10-05T00:02:06.942Z,943.95
2018-10-05T00:03:08.171Z,943.96
2018-10-05T00:04:08.962Z,943.97
2018-10-05T00:05:09.462Z,943.94
2018-10-05T00:06:10.086Z,943.95
2018-10-05T00:07:10.866Z,943.96
2018-10-05T00:08:11.648Z,943.98
2018-10-05T00:09:11.988Z,943.98
2018-10-05T00:10:12.882Z,943.98
2018-10-05T00:11:13.941Z,943.95
2018-10-05T00:12:14.770Z,943.95
2018-10-05T00:13:15.560Z,943.96
2018-10-05T00:14:16.071Z,943.93
2018-10-05T00:15:16.859Z,943.94
2018-10-05T00:16:17.362Z,943.9
2018-10-05T00:17:17.699Z,943.87
2018-10-05T00:18:18.207Z,943.86
2018-10-05T00:19:19.268Z,943.9
2018-10-05T00:20:19.781Z,943.87
2018-10-05T00:21:20.540Z,943.85
2018-10-05T00:22:21.049Z,943.88
2018-10-05T00:23:21.827Z,943.88
2018-10-05T00:24:22.364Z,943.87
2018-10-05T00:25:23.147Z,943.89
2018-10-05T00:26:24.205Z,943.87
2018-10-05T00:27:25.430Z,943.84
2018-10-05T00:28:25.769Z,943.83
2018-10-05T00:29:26.384Z,943.86
2018-10-05T00:30:27.611Z,943.82
2018-10-05T00:31:28.950Z,943.82
2018-10-05T00:32:30.594Z,943.84
2018-10-05T00:33:31.278Z,943.79
2018-10-05T00:34:31.812Z,943.8
2018-10-05T00:35:32.430Z,943.83
2018-10-05T00:36:33.766Z,943.83
2018-10-05T00:37:35.103Z,943.86
2018-10-05T00:38:36.336Z,943.84
2018-10-05T00:39:37.136Z,943.87
2018-10-05T00:40:37.824Z,943.82
2018-10-05T00:41:38.323Z,943.8
2018-10-05T00:42:39.419Z,943.81
2018-10-05T00:43:40.448Z,943.84
2018-10-05T00:44:41.686Z,943.81
2018-10-05T00:45:42.468Z,943.82
2018-10-05T00:46:42.984Z,943.79
2018-10-05T00:47:43.777Z,943.83
2018-10-05T00:48:44.849Z,943.83
2018-10-05T00:49:45.925Z,943.83
2018-10-05T00:50:46.995Z,943.82
2018-10-05T00:51:47.794Z,943.79
2018-10-05T00:52:48.600Z,943.84
2018-10-05T00:53:49.675Z,943.83
2018-10-05T00:54:50.951Z,943.86
2018-10-05T00:55:51.465Z,943.82
2018-10-05T00:56:52.541Z,943.84
2018-10-05T00:57:53.337Z,943.81
2018-10-05T00:58:53.855Z,943.78
2018-10-05T00:59:54.651Z,943.77
2018-10-05T01:00:55.722Z,943.78
2018-10-05T01:01:56.527Z,943.79
2018-10-05T01:02:57.599Z,943.79
2018-10-05T01:03:58.116Z,943.82
2018-10-05T01:04:58.668Z,943.78
2018-10-05T01:05:59.186Z,943.79
2018-10-05T01:06:59.977Z,943.81
2018-10-05T01:08:00.774Z,943.81
2018-10-05T01:09:01.399Z,943.82
2018-10-05T01:10:02.192Z,943.81
2018-10-05T01:11:02.987Z,943.79
2018-10-05T01:12:03.500Z,943.79
2018-10-05T01:13:04.574Z,943.81
2018-10-05T01:14:05.649Z,943.8
2018-10-05T01:15:06.476Z,943.82
2018-10-05T01:16:07.271Z,943.78
2018-10-05T01:17:08.064Z,943.8
2018-10-05T01:18:08.858Z,943.79
2018-10-05T01:19:10.211Z,943.8
2018-10-05T01:20:11.445Z,943.78
2018-10-05T01:21:12.242Z,943.78
2018-10-05T01:22:13.479Z,943.77
2018-10-05T01:23:14.271Z,943.76
2018-10-05T01:24:14.786Z,943.75
2018-10-05T01:25:15.209Z,943.69
2018-10-05T01:26:15.724Z,943.71
2018-10-05T01:27:16.796Z,943.71
2018-10-05T01:28:17.867Z,943.69
2018-10-05T01:29:19.108Z,943.69
2018-10-05T01:30:20.459Z,943.64
2018-10-05T01:31:21.695Z,943.68
2018-10-05T01:32:22.338Z,943.69
2018-10-05T01:33:23.135Z,943.66
2018-10-05T01:34:24.206Z,943.68
2018-10-05T01:35:25.736Z,943.66
2018-10-05T01:36:26.651Z,943.67
2018-10-05T01:37:27.892Z,943.64
2018-10-05T01:38:29.123Z,943.68
2018-10-05T01:39:29.918Z,943.67
2018-10-05T01:40:30.714Z,943.68
2018-10-05T01:41:31.230Z,943.7
2018-10-05T01:42:32.023Z,943.7
2018-10-05T01:43:32.378Z,943.72
2018-10-05T01:44:33.450Z,943.73
2018-10-05T01:45:35.002Z,943.72
2018-10-05T01:46:36.073Z,943.71
2018-10-05T01:47:37.148Z,943.73
2018-10-05T01:48:38.222Z,943.73
2018-10-05T01:49:38.576Z,943.73
2018-10-05T01:50:38.924Z,943.71
2018-10-05T01:51:39.998Z,943.73
2018-10-05T01:52:40.376Z,943.72
2018-10-05T01:53:40.932Z,943.71
2018-10-05T01:54:41.725Z,943.68
2018-10-05T01:55:42.836Z,943.68
2018-10-05T01:56:44.186Z,943.71
2018-10-05T01:57:44.705Z,943.67
2018-10-05T01:58:45.777Z,943.68
2018-10-05T01:59:46.689Z,943.66
2018-10-05T02:00:47.928Z,943.64
2018-10-05T02:01:48.286Z,943.65
2018-10-05T02:02:49.080Z,943.61
2018-10-05T02:03:49.874Z,943.62
2018-10-05T02:04:50.950Z,943.63
2018-10-05T02:05:51.779Z,943.6
2018-10-05T02:06:52.295Z,943.61
2018-10-05T02:07:53.090Z,943.58
2018-10-05T02:08:54.159Z,943.54
2018-10-05T02:09:54.959Z,943.56
2018-10-05T02:10:55.309Z,943.53
2018-10-05T02:11:56.658Z,943.55
2018-10-05T02:12:58.008Z,943.53
2018-10-05T02:13:58.530Z,943.5
2018-10-05T02:14:59.322Z,943.48
2018-10-05T02:16:00.290Z,943.51
2018-10-05T02:17:01.198Z,943.51
2018-10-05T02:18:01.729Z,943.55
2018-10-05T02:19:03.232Z,943.51
2018-10-05T02:20:04.307Z,943.51
2018-10-05T02:21:04.819Z,943.51
2018-10-05T02:22:05.337Z,943.51
2018-10-05T02:23:05.856Z,943.45
2018-10-05T02:24:06.647Z,943.46
2018-10-05T02:25:07.014Z,943.43
2018-10-05T02:26:07.981Z,943.46
2018-10-05T02:27:09.219Z,943.44
2018-10-05T02:28:10.290Z,943.44
2018-10-05T02:29:11.194Z,943.44
2018-10-05T02:30:11.714Z,943.43
2018-10-05T02:31:12.792Z,943.42
2018-10-05T02:32:13.420Z,943.4
2018-10-05T02:33:14.360Z,943.39
2018-10-05T02:34:15.153Z,943.41
2018-10-05T02:35:15.782Z,943.42
2018-10-05T02:36:16.439Z,943.42
2018-10-05T02:37:17.233Z,943.42
2018-10-05T02:38:18.141Z,943.37
2018-10-05T02:39:19.381Z,943.34
2018-10-05T02:40:19.732Z,943.35
2018-10-05T02:41:21.080Z,943.39
2018-10-05T02:42:22.159Z,943.33
2018-10-05T02:43:22.950Z,943.36
2018-10-05T02:44:23.861Z,943.4
2018-10-05T02:45:25.102Z,943.37
2018-10-05T02:46:25.904Z,943.37
2018-10-05T02:47:26.532Z,943.34
2018-10-05T02:48:27.607Z,943.33
2018-10-05T02:49:28.683Z,943.37
2018-10-05T02:50:29.602Z,943.36
2018-10-05T02:51:29.959Z,943.38
2018-10-05T02:52:30.312Z,943.35
2018-10-05T02:53:30.827Z,943.38
2018-10-05T02:54:31.908Z,943.33
2018-10-05T02:55:32.700Z,943.31
2018-10-05T02:56:33.366Z,943.32
2018-10-05T02:57:34.716Z,943.36
2018-10-05T02:58:35.237Z,943.36
2018-10-05T02:59:36.034Z,943.34
2018-10-05T03:00:36.551Z,943.31
2018-10-05T03:01:37.903Z,943.26
2018-10-05T03:02:38.975Z,943.3
2018-10-05T03:03:39.914Z,943.24
2018-10-05T03:04:40.710Z,943.23
2018-10-05T03:05:42.235Z,943.23
2018-10-05T03:06:43.321Z,943.21
2018-10-05T03:07:44.395Z,943.2
2018-10-05T03:08:44.911Z,943.22
2018-10-05T03:09:45.825Z,943.21
2018-10-05T03:10:46.630Z,943.2
2018-10-05T03:11:47.713Z,943.23
2018-10-05T03:12:48.508Z,943.21
2018-10-05T03:13:49.141Z,943.19
2018-10-05T03:14:49.649Z,943.18
2018-10-05T03:15:50.455Z,943.16
2018-10-05T03:16:51.271Z,943.14
2018-10-05T03:17:51.896Z,943.13
2018-10-05T03:18:52.692Z,943.11
2018-10-05T03:19:53.673Z,943.09
2018-10-05T03:20:54.804Z,943.06
2018-10-05T03:21:55.149Z,943.06
2018-10-05T03:22:56.498Z,943.07
2018-10-05T03:23:57.128Z,943.04
2018-10-05T03:24:57.478Z,943.04
2018-10-05T03:25:57.991Z,943.06
2018-10-05T03:26:58.380Z,943.03
2018-10-05T03:27:58.891Z,943
2018-10-05T03:28:59.408Z,943.08
2018-10-05T03:30:00.200Z,943.05
2018-10-05T03:31:01.287Z,943.02
2018-10-05T03:32:02.084Z,943.05
2018-10-05T03:33:02.729Z,943.04
2018-10-05T03:34:03.363Z,943.04
2018-10-05T03:35:04.728Z,943.01
2018-10-05T03:36:05.357Z,943.04
2018-10-05T03:37:06.166Z,943.01
2018-10-05T03:38:06.960Z,943.03
2018-10-05T03:39:08.039Z,943.07
2018-10-05T03:40:09.117Z,943.08
2018-10-05T03:41:09.740Z,943.08
2018-10-05T03:42:10.368Z,943.09
2018-10-05T03:43:10.715Z,943.08
2018-10-05T03:44:11.783Z,943.09
2018-10-05T03:45:12.298Z,943.05
2018-10-05T03:46:13.090Z,943.08
2018-10-05T03:47:14.258Z,943.03
2018-10-05T03:48:14.607Z,943.04
2018-10-05T03:49:14.959Z,942.98
2018-10-05T03:50:15.754Z,943
2018-10-05T03:51:16.381Z,943
2018-10-05T03:52:17.174Z,943
2018-10-05T03:53:17.814Z,943.01
2018-10-05T03:54:18.718Z,943
2018-10-05T03:55:19.511Z,943
2018-10-05T03:56:20.582Z,943.02
2018-10-05T03:57:21.019Z,943.01
2018-10-05T03:58:21.929Z,943.01
2018-10-05T03:59:22.727Z,943.01
2018-10-05T04:00:23.235Z,943
2018-10-05T04:01:23.751Z,943.01
2018-10-05T04:02:24.831Z,942.99
2018-10-05T04:03:25.732Z,943.01
2018-10-05T04:04:26.530Z,943.01
2018-10-05T04:05:27.325Z,942.97
2018-10-05T04:06:28.231Z,942.9
2018-10-05T04:07:29.353Z,942.96
2018-10-05T04:08:30.713Z,942.91
2018-10-05T04:09:31.630Z,942.87
2018-10-05T04:10:32.699Z,942.86
2018-10-05T04:11:33.501Z,942.87
2018-10-05T04:12:33.853Z,942.79
2018-10-05T04:13:35.205Z,942.85
2018-10-05T04:14:35.722Z,942.81
2018-10-05T04:15:36.961Z,942.81
2018-10-05T04:16:37.755Z,942.84
2018-10-05T04:17:39.289Z,942.82
2018-10-05T04:18:40.355Z,942.89
2018-10-05T04:19:41.261Z,942.9
2018-10-05T04:20:41.775Z,942.86
2018-10-05T04:21:43.131Z,942.89
2018-10-05T04:22:44.199Z,942.84
2018-10-05T04:23:45.713Z,942.87
2018-10-05T04:24:46.350Z,942.86
2018-10-05T04:25:46.975Z,942.83
2018-10-05T04:26:47.495Z,942.84
2018-10-05T04:27:48.767Z,942.85
2018-10-05T04:28:49.680Z,942.83
2018-10-05T04:29:50.027Z,942.83
2018-10-05T04:30:50.821Z,942.9
2018-10-05T04:31:51.174Z,942.84
2018-10-05T04:32:52.408Z,942.84
2018-10-05T04:33:53.482Z,942.81
2018-10-05T04:34:54.108Z,942.87
2018-10-05T04:35:55.177Z,942.85
2018-10-05T04:36:55.966Z,942.83
2018-10-05T04:37:56.662Z,942.82
2018-10-05T04:38:57.020Z,942.81
2018-10-05T04:39:58.535Z,942.82
2018-10-05T04:40:59.328Z,942.8
2018-10-05T04:42:00.387Z,942.85
2018-10-05T04:43:00.741Z,942.83
2018-10-05T04:44:01.368Z,942.83
2018-10-05T04:45:02.193Z,942.86
2018-10-05T04:46:03.104Z,942.83
2018-10-05T04:47:04.457Z,942.83
2018-10-05T04:48:04.840Z,942.81
2018-10-05T04:49:05.467Z,942.81
2018-10-05T04:50:05.834Z,942.84
2018-10-05T04:51:06.913Z,942.8
2018-10-05T04:52:07.262Z,942.75
2018-10-05T04:53:07.958Z,942.76
2018-10-05T04:54:09.028Z,942.76
2018-10-05T04:55:09.541Z,942.75
2018-10-05T04:56:10.450Z,942.71
2018-10-05T04:57:11.249Z,942.75
2018-10-05T04:58:11.909Z,942.74
2018-10-05T04:59:12.698Z,942.71
2018-10-05T05:00:13.055Z,942.75
2018-10-05T05:01:14.123Z,942.76
2018-10-05T05:02:15.192Z,942.73
2018-10-05T05:03:15.985Z,942.72
2018-10-05T05:04:16.847Z,942.75
2018-10-05T05:05:17.363Z,942.76
2018-10-05T05:06:17.879Z,942.76
2018-10-05T05:07:18.394Z,942.75
2018-10-05T05:08:19.367Z,942.72
2018-10-05T05:09:20.710Z,942.79
2018-10-05T05:10:21.503Z,942.76
2018-10-05T05:11:21.854Z,942.8
2018-10-05T05:12:22.645Z,942.79
2018-10-05T05:13:22.996Z,942.79
2018-10-05T05:14:23.513Z,942.83
2018-10-05T05:15:24.868Z,942.77
2018-10-05T05:16:25.710Z,942.76
2018-10-05T05:17:26.512Z,942.75
2018-10-05T05:18:27.764Z,942.78
2018-10-05T05:19:28.132Z,942.77
2018-10-05T05:20:29.548Z,942.79
2018-10-05T05:21:30.341Z,942.8
2018-10-05T05:22:31.135Z,942.8
2018-10-05T05:23:31.650Z,942.79
2018-10-05T05:24:32.450Z,942.84
2018-10-05T05:25:33.242Z,942.82
2018-10-05T05:26:34.041Z,942.8
2018-10-05T05:27:35.115Z,942.82
2018-10-05T05:28:35.640Z,942.8
2018-10-05T05:29:36.724Z,942.74
2018-10-05T05:30:38.078Z,942.8
2018-10-05T05:31:38.704Z,942.76
2018-10-05T05:32:39.944Z,942.8
2018-10-05T05:33:41.613Z,942.8
2018-10-05T05:34:42.327Z,942.82
2018-10-05T05:35:43.131Z,942.78
2018-10-05T05:36:44.207Z,942.81
2018-10-05T05:37:44.560Z,942.84
2018-10-05T05:38:45.813Z,942.84
2018-10-05T05:39:46.885Z,942.83
2018-10-05T05:40:47.407Z,942.85
2018-10-05T05:41:48.480Z,942.81
2018-10-05T05:42:49.282Z,942.83
2018-10-05T05:43:49.799Z,942.85
2018-10-05T05:44:50.173Z,942.86
2018-10-05T05:45:50.690Z,942.85
2018-10-05T05:46:52.338Z,942.82
2018-10-05T05:47:53.361Z,942.8
2018-10-05T05:48:54.344Z,942.79
2018-10-05T05:49:55.416Z,942.77
2018-10-05T05:50:56.218Z,942.76
2018-10-05T05:51:57.293Z,942.77
2018-10-05T05:52:58.535Z,942.78
2018-10-05T05:53:59.980Z,942.77
2018-10-05T05:55:00.660Z,942.8
2018-10-05T05:56:01.463Z,942.77
2018-10-05T05:57:02.753Z,942.81
2018-10-05T05:58:03.990Z,942.81
2018-10-05T05:59:04.969Z,942.78
2018-10-05T06:00:06.040Z,942.84
2018-10-05T06:01:06.710Z,942.87
2018-10-05T06:02:07.736Z,942.85
2018-10-05T06:03:08.560Z,942.88
2018-10-05T06:04:09.313Z,942.86
2018-10-05T06:05:10.133Z,942.88
2018-10-05T06:06:10.485Z,942.9
2018-10-05T06:07:11.002Z,942.91
2018-10-05T06:08:11.743Z,942.9
2018-10-05T06:09:12.234Z,942.91
2018-10-05T06:10:12.591Z,942.92
2018-10-05T06:11:13.952Z,942.89
2018-10-05T06:12:15.027Z,942.88
2018-10-05T06:13:15.827Z,942.89
2018-10-05T06:14:16.640Z,942.88
2018-10-05T06:15:17.460Z,942.92
2018-10-05T06:16:17.944Z,942.91
2018-10-05T06:17:18.518Z,942.98
2018-10-05T06:18:18.889Z,942.98
2018-10-05T06:19:19.252Z,942.95
2018-10-05T06:20:20.050Z,942.95
2018-10-05T06:21:20.571Z,942.93
2018-10-05T06:22:21.427Z,942.97
2018-10-05T06:23:22.144Z,942.95
2018-10-05T06:24:23.234Z,942.94
2018-10-05T06:25:23.908Z,942.93
2018-10-05T06:26:25.136Z,942.89
2018-10-05T06:27:26.959Z,942.89
2018-10-05T06:28:28.073Z,942.9
2018-10-05T06:29:29.336Z,942.86
2018-10-05T06:30:33.895Z,942.89
2018-10-05T06:30:43.244Z,942.87
2018-10-05T06:31:43.509Z,942.9
2018-10-05T06:32:44.026Z,942.92
2018-10-05T06:33:45.550Z,942.93
2018-10-05T06:34:46.119Z,942.97
2018-10-05T06:35:46.647Z,942.92
2018-10-05T06:36:47.441Z,942.85
2018-10-05T06:37:48.676Z,942.92
2018-10-05T06:38:49.198Z,942.89
2018-10-05T06:39:49.886Z,942.93
2018-10-05T06:40:50.249Z,942.9
2018-10-05T06:41:51.028Z,942.89
2018-10-05T06:42:51.996Z,942.88
2018-10-05T06:43:52.799Z,942.91
2018-10-05T06:44:53.873Z,942.92
2018-10-05T06:45:55.490Z,942.91
2018-10-05T06:46:56.014Z,942.92
2018-10-05T06:47:56.368Z,942.9
2018-10-05T06:48:57.162Z,942.93
2018-10-05T06:49:58.557Z,942.98
2018-10-05T06:50:59.637Z,942.97
2018-10-05T06:51:59.917Z,943.07
2018-10-05T06:53:01.627Z,943.05
2018-10-05T06:54:01.750Z,943.02
2018-10-05T06:55:02.391Z,943.03
2018-10-05T06:56:03.484Z,943.08
2018-10-05T06:57:04.324Z,943.1
2018-10-05T06:58:05.141Z,943.14
2018-10-05T06:59:05.541Z,943.18
2018-10-05T07:00:06.469Z,943.16
2018-10-05T07:01:07.322Z,943.2
2018-10-05T07:02:08.472Z,943.22
2018-10-05T07:03:09.022Z,943.26
2018-10-05T07:04:09.829Z,943.31
2018-10-05T07:05:10.633Z,943.3
2018-10-05T07:06:11.160Z,943.25
2018-10-05T07:07:11.683Z,943.27
2018-10-05T07:08:12.742Z,943.24
2018-10-05T07:09:13.800Z,943.25
2018-10-05T07:10:14.328Z,943.22
2018-10-05T07:11:14.861Z,943.21
2018-10-05T07:12:15.939Z,943.22
2018-10-05T07:13:17.022Z,943.25
2018-10-05T07:14:17.830Z,943.25
2018-10-05T07:15:18.647Z,943.25
2018-10-05T07:16:19.729Z,943.27
2018-10-05T07:17:20.093Z,943.23
2018-10-05T07:18:20.895Z,943.24
2018-10-05T07:19:21.704Z,943.25
2018-10-05T07:20:22.574Z,943.31
2018-10-05T07:21:23.266Z,943.31
2018-10-05T07:22:24.177Z,943.27
2018-10-05T07:23:25.223Z,943.28
2018-10-05T07:24:25.749Z,943.28
2018-10-05T07:25:26.562Z,943.26
2018-10-05T07:26:27.364Z,943.26
2018-10-05T07:27:28.455Z,943.26
2018-10-05T07:28:29.140Z,943.28
2018-10-05T07:29:30.421Z,943.29
2018-10-05T07:30:31.504Z,943.29
2018-10-05T07:31:32.869Z,943.26
2018-10-05T07:32:33.575Z,943.27
2018-10-05T07:33:34.106Z,943.29
2018-10-05T07:34:34.910Z,943.29
2018-10-05T07:35:35.992Z,943.24
2018-10-05T07:36:36.530Z,943.31
2018-10-05T07:37:37.332Z,943.28
2018-10-05T07:38:37.967Z,943.26
2018-10-05T07:39:38.771Z,943.24
2018-10-05T07:40:39.578Z,943.24
2018-10-05T07:41:39.944Z,943.26
2018-10-05T07:42:40.645Z,943.26
2018-10-05T07:43:40.888Z,943.23
2018-10-05T07:44:41.687Z,943.22
2018-10-05T07:45:42.581Z,943.18
2018-10-05T07:46:43.980Z,943.16
2018-10-05T07:47:44.678Z,943.18
2018-10-05T07:48:45.754Z,943.2
2018-10-05T07:49:46.985Z,943.13
2018-10-05T07:50:47.858Z,943.14
2018-10-05T07:51:48.716Z,943.12
2018-10-05T07:52:49.896Z,943.13
2018-10-05T07:53:51.928Z,943.11
2018-10-05T07:54:52.517Z,943.14
2018-10-05T07:55:53.601Z,943.12
2018-10-05T07:56:54.851Z,943.17
2018-10-05T07:57:55.981Z,943.14
2018-10-05T07:58:56.805Z,943.17
2018-10-05T07:59:57.892Z,943.13
2018-10-05T08:00:58.984Z,943.18
2018-10-05T08:01:59.509Z,943.17
2018-10-05T08:03:00.817Z,943.18
2018-10-05T08:04:01.901Z,943.21
2018-10-05T08:05:02.709Z,943.22
2018-10-05T08:06:03.652Z,943.21
2018-10-05T08:07:04.460Z,943.23
2018-10-05T08:08:06.191Z,943.23
2018-10-05T08:09:05.792Z,943.24
2018-10-05T08:10:06.595Z,943.25
2018-10-05T08:11:07.403Z,943.22
2018-10-05T08:12:08.080Z,943.22
2018-10-05T08:13:08.775Z,943.26
2018-10-05T08:14:09.299Z,943.22
2018-10-05T08:15:10.546Z,943.21
2018-10-05T08:16:11.095Z,943.21
2018-10-05T08:17:12.179Z,943.23
2018-10-05T08:18:13.417Z,943.2
2018-10-05T08:19:14.499Z,943.23
2018-10-05T08:20:15.585Z,943.16
2018-10-05T08:21:16.392Z,943.17
2018-10-05T08:22:17.593Z,943.15
2018-10-05T08:23:17.946Z,943.14
2018-10-05T08:24:18.756Z,943.16
2018-10-05T08:25:19.112Z,943.19
2018-10-05T08:26:19.637Z,943.16
2018-10-05T08:27:20.718Z,943.13
2018-10-05T08:28:22.101Z,943.15
2018-10-05T08:29:24.867Z,943.12
2018-10-05T08:30:25.233Z,943.11
2018-10-05T08:31:25.592Z,943.06
2018-10-05T08:32:26.683Z,943.04
2018-10-05T08:33:27.563Z,943.04
2018-10-05T08:34:28.528Z,943.04
2018-10-05T08:35:30.196Z,943.02
2018-10-05T08:35:41.435Z,943.01
2018-10-05T08:36:42.340Z,943.05
2018-10-05T08:37:43.041Z,943.03
2018-10-05T08:38:43.303Z,943.06
2018-10-05T08:39:44.625Z,943.05
2018-10-05T08:40:45.457Z,943.07
2018-10-05T08:41:46.264Z,943.09
2018-10-05T08:42:47.072Z,943.06
2018-10-05T08:43:48.488Z,943.08
2018-10-05T08:44:00.050Z,943.05
2018-10-05T08:44:12.019Z,943.06
2018-10-05T08:44:24.940Z,943.06
2018-10-05T08:45:25.033Z,943.09
2018-10-05T08:46:26.481Z,943.02
2018-10-05T08:47:27.291Z,943.05
2018-10-05T08:48:28.099Z,943.06
2018-10-05T08:49:29.187Z,943.05
2018-10-05T08:50:30.710Z,943.01
2018-10-05T08:51:31.120Z,942.98
2018-10-05T08:52:32.240Z,943.02
2018-10-05T08:53:33.046Z,942.99
2018-10-05T08:54:34.575Z,942.95
2018-10-05T08:55:35.183Z,942.96
2018-10-05T08:56:35.991Z,942.94
2018-10-05T08:57:37.352Z,942.91
2018-10-05T08:58:39.448Z,942.89
2018-10-05T08:58:50.445Z,942.92
2018-10-05T08:59:50.475Z,942.86
2018-10-05T09:00:50.993Z,942.85
2018-10-05T09:01:51.799Z,942.9
2018-10-05T09:02:52.325Z,942.83
2018-10-05T09:03:53.132Z,942.81
2018-10-05T09:04:53.679Z,942.83
2018-10-05T09:05:54.520Z,942.83
2018-10-05T09:06:55.707Z,942.8
2018-10-05T09:07:56.968Z,942.79
2018-10-05T09:08:57.792Z,942.75
2018-10-05T09:09:59.893Z,942.77
2018-10-05T09:11:00.203Z,942.76
2018-10-05T09:12:01.454Z,942.76
2018-10-05T09:13:02.091Z,942.72
2018-10-05T09:14:03.335Z,942.71
2018-10-05T09:15:04.736Z,942.71
2018-10-05T09:16:05.812Z,942.7
2018-10-05T09:17:06.428Z,942.68
2018-10-05T09:18:07.404Z,942.65
2018-10-05T09:19:08.028Z,942.61
2018-10-05T09:20:08.864Z,942.67
2018-10-05T09:21:10.221Z,942.59
2018-10-05T09:22:11.026Z,942.63
2018-10-05T09:23:12.548Z,942.58
2018-10-05T09:24:13.303Z,942.63
2018-10-05T09:25:14.170Z,942.59
2018-10-05T09:26:14.703Z,942.56
2018-10-05T09:27:15.154Z,942.53
2018-10-05T09:28:16.242Z,942.53
2018-10-05T09:29:17.173Z,942.48
2018-10-05T09:30:17.581Z,942.5
2018-10-05T09:31:18.664Z,942.48
2018-10-05T09:32:19.746Z,942.5
2018-10-05T09:33:20.826Z,942.49
2018-10-05T09:34:21.352Z,942.49
2018-10-05T09:35:22.600Z,942.48
2018-10-05T09:36:23.682Z,942.47
2018-10-05T09:37:24.268Z,942.49
2018-10-05T09:38:25.323Z,942.43
2018-10-05T09:39:25.845Z,942.43
2018-10-05T09:40:26.215Z,942.43
2018-10-05T09:41:27.022Z,942.42
2018-10-05T09:42:27.545Z,942.39
2018-10-05T09:43:28.075Z,942.42
2018-10-05T09:44:29.165Z,942.46
2018-10-05T09:45:29.702Z,942.45
2018-10-05T09:46:30.510Z,942.42
2018-10-05T09:47:31.428Z,942.39
2018-10-05T09:48:32.489Z,942.4
2018-10-05T09:49:33.021Z,942.37
2018-10-05T09:50:33.587Z,942.38
2018-10-05T09:51:34.396Z,942.37
2018-10-05T09:52:35.263Z,942.4
2018-10-05T09:53:35.647Z,942.42
2018-10-05T09:54:37.130Z,942.43
2018-10-05T09:55:38.164Z,942.44
2018-10-05T09:56:39.267Z,942.45
2018-10-05T09:57:40.353Z,942.49
2018-10-05T09:58:40.951Z,942.54
2018-10-05T09:59:41.792Z,942.55
2018-10-05T10:00:42.693Z,942.61
2018-10-05T10:01:43.359Z,942.59
2018-10-05T10:02:43.967Z,942.63
2018-10-05T10:03:45.338Z,942.67
2018-10-05T10:04:46.700Z,942.68
2018-10-05T10:05:47.898Z,942.59
2018-10-05T10:06:48.983Z,942.58
2018-10-05T10:07:49.780Z,942.56
2018-10-05T10:08:50.160Z,942.52
2018-10-05T10:09:52.399Z,942.47
2018-10-05T10:10:03.236Z,942.49
2018-10-05T10:11:03.999Z,942.5
2018-10-05T10:12:05.550Z,942.44
2018-10-05T10:13:06.985Z,942.48
2018-10-05T10:14:06.876Z,942.5
2018-10-05T10:15:08.120Z,942.5
2018-10-05T10:16:08.828Z,942.53
2018-10-05T10:17:09.560Z,942.46
2018-10-05T10:18:10.917Z,942.52
2018-10-05T10:19:11.417Z,942.52
2018-10-05T10:20:12.538Z,942.55
2018-10-05T10:21:13.630Z,942.57
2018-10-05T10:22:13.940Z,942.56
2018-10-05T10:23:15.169Z,942.54
2018-10-05T10:24:16.393Z,942.53
2018-10-05T10:25:17.453Z,942.52
2018-10-05T10:26:18.315Z,942.52
2018-10-05T10:27:19.195Z,942.49
2018-10-05T10:28:19.911Z,942.47
2018-10-05T10:29:21.776Z,942.46
2018-10-05T10:30:22.898Z,942.43
2018-10-05T10:31:23.729Z,942.45
2018-10-05T10:32:25.303Z,942.43
2018-10-05T10:33:25.176Z,942.46
2018-10-05T10:34:26.457Z,942.46
2018-10-05T10:35:27.538Z,942.44
2018-10-05T10:36:28.041Z,942.41
2018-10-05T10:37:29.009Z,942.4
2018-10-05T10:38:29.934Z,942.37
2018-10-05T10:39:30.472Z,942.37
2018-10-05T10:40:31.299Z,942.34
2018-10-05T10:41:32.370Z,942.33
2018-10-05T10:42:33.505Z,942.3
2018-10-05T10:43:34.611Z,942.33
2018-10-05T10:44:35.434Z,942.33
2018-10-05T10:45:36.262Z,942.31
2018-10-05T10:46:37.121Z,942.37
2018-10-05T10:47:38.306Z,942.31
2018-10-05T10:48:39.427Z,942.31
2018-10-05T10:49:40.004Z,942.29
2018-10-05T10:50:40.845Z,942.21
2018-10-05T10:51:41.561Z,942.19
2018-10-05T10:52:42.207Z,942.24
2018-10-05T10:53:43.022Z,942.18
2018-10-05T10:54:43.665Z,942.19
2018-10-05T10:55:45.032Z,942.17
2018-10-05T10:56:45.685Z,942.1
2018-10-05T10:57:46.943Z,942.12
2018-10-05T10:58:48.034Z,942.08
2018-10-05T10:59:49.324Z,942.1
2018-10-05T11:00:50.562Z,942.09
2018-10-05T11:01:50.816Z,942.09
2018-10-05T11:02:51.633Z,942.07
2018-10-05T11:03:52.984Z,942.02
2018-10-05T11:04:54.569Z,942.03
2018-10-05T11:05:55.228Z,942.01
2018-10-05T11:06:56.135Z,941.95
2018-10-05T11:07:56.883Z,941.91
2018-10-05T11:08:57.689Z,941.9
2018-10-05T11:09:58.279Z,941.9
2018-10-05T11:10:59.322Z,941.89
2018-10-05T11:12:00.398Z,941.88
2018-10-05T11:13:02.673Z,941.86
2018-10-05T11:13:13.831Z,941.86
2018-10-05T11:14:14.957Z,941.83
2018-10-05T11:15:15.822Z,941.8
2018-10-05T11:16:16.956Z,941.78
2018-10-05T11:17:17.884Z,941.76
2018-10-05T11:18:18.511Z,941.77
2018-10-05T11:19:19.182Z,941.76
2018-10-05T11:20:19.721Z,941.73
2018-10-05T11:21:20.905Z,941.71
2018-10-05T11:22:22.272Z,941.66
2018-10-05T11:23:24.124Z,941.64
2018-10-05T11:24:24.768Z,941.63
2018-10-05T11:25:25.467Z,941.58
2018-10-05T11:26:25.837Z,941.54
2018-10-05T11:27:26.680Z,941.52
2018-10-05T11:28:27.768Z,941.53
2018-10-05T11:29:29.205Z,941.55
2018-10-05T11:30:29.925Z,941.51
2018-10-05T11:31:31.011Z,941.53
2018-10-05T11:32:31.890Z,941.53
2018-10-05T11:33:32.977Z,941.57
2018-10-05T11:34:33.798Z,941.55
2018-10-05T11:35:34.882Z,941.49
2018-10-05T11:36:35.587Z,941.46
2018-10-05T11:37:35.956Z,941.41
2018-10-05T11:38:37.205Z,941.38
2018-10-05T11:39:37.738Z,941.37
2018-10-05T11:40:38.867Z,941.31
2018-10-05T11:41:39.680Z,941.29
2018-10-05T11:42:42.085Z,941.34
2018-10-05T11:42:53.119Z,941.33
2018-10-05T11:43:54.031Z,941.36
2018-10-05T11:44:54.844Z,941.33
2018-10-05T11:45:55.654Z,941.28
2018-10-05T11:46:56.183Z,941.24
2018-10-05T11:47:56.996Z,941.21
2018-10-05T11:48:58.151Z,941.25
2018-10-05T11:49:59.101Z,941.21
2018-10-05T11:50:59.484Z,941.23
2018-10-05T11:51:59.803Z,941.18
2018-10-05T11:53:01.107Z,941.19
2018-10-05T11:54:00.950Z,941.18
2018-10-05T11:55:03.529Z,941.2
2018-10-05T11:56:04.652Z,941.17
2018-10-05T11:57:05.028Z,941.17
2018-10-05T11:58:05.559Z,941.17
2018-10-05T11:59:06.669Z,941.15
2018-10-05T12:00:07.634Z,941.11
2018-10-05T12:01:08.647Z,941.12
2018-10-05T12:02:09.464Z,941.09
2018-10-05T12:03:10.580Z,941.08
2018-10-05T12:04:11.476Z,941.08
2018-10-05T12:05:12.017Z,941.06
2018-10-05T12:06:12.378Z,941.07
2018-10-05T12:07:13.507Z,941.08
2018-10-05T12:08:14.041Z,941.07
2018-10-05T12:09:14.697Z,941.04
2018-10-05T12:10:15.979Z,941.06
2018-10-05T12:11:17.300Z,941.08
2018-10-05T12:12:18.527Z,941.01
2018-10-05T12:13:19.337Z,941.1
2018-10-05T12:14:20.805Z,941.09
2018-10-05T12:15:21.901Z,941.1
2018-10-05T12:16:22.433Z,941.03
2018-10-05T12:17:23.516Z,941
2018-10-05T12:18:24.456Z,941.05
2018-10-05T12:19:24.824Z,941.02
2018-10-05T12:20:26.192Z,941.01
2018-10-05T12:21:27.287Z,940.96
2018-10-05T12:22:28.383Z,940.97
2018-10-05T12:23:29.483Z,940.95
2018-10-05T12:24:30.067Z,940.93
2018-10-05T12:25:30.867Z,940.89
2018-10-05T12:26:31.441Z,940.86
2018-10-05T12:27:31.987Z,940.82
2018-10-05T12:28:33.096Z,940.8
2018-10-05T12:29:33.629Z,940.81
2018-10-05T12:30:35.013Z,940.74
2018-10-05T12:31:35.656Z,940.74
2018-10-05T12:32:36.746Z,940.72
2018-10-05T12:33:37.558Z,940.73
2018-10-05T12:34:38.824Z,940.73